sensor_id;sensor_type;location;lat;lon;timestamp;temperature;humidity
23544;DHT22;11950;51.230;4.012;2023-02-17T00:01:59;13.00;99.90
23544;DHT22;11950;51.230;4.012;2023-02-17T00:04:30;12.90;99.90
23544;DHT22;11950;51.230;4.012;2023-02-17T00:06:57;12.90;99.90
23544;DHT22;11950;51.230;4.012;2023-02-17T00:09:24;12.90;99.90
23544;DHT22;11950;51.230;4.012;2023-02-17T00:11:51;13.00;99.90
23544;DHT22;11950;51.230;4.012;2023-02-17T00:14:17;12.90;99.90
23544;DHT22;11950;51.230;4.012;2023-02-17T00:16:44;13.00;99.90
23544;DHT22;11950;51.230;4.012;2023-02-17T00:19:12;12.90;99.90
23544;DHT22;11950;51.230;4.012;2023-02-17T00:21:56;12.90;99.90
23544;DHT22;11950;51.230;4.012;2023-02-17T00:24:24;12.90;99.90
23544;DHT22;11950;51.230;4.012;2023-02-17T00:26:50;12.90;99.90
23544;DHT22;11950;51.230;4.012;2023-02-17T00:29:17;12.80;99.90
23544;DHT22;11950;51.230;4.012;2023-02-17T00:31:44;12.90;99.90
23544;DHT22;11950;51.230;4.012;2023-02-17T00:34:11;12.90;99.90
23544;DHT22;11950;51.230;4.012;2023-02-17T00:36:37;12.80;99.90
23544;DHT22;11950;51.230;4.012;2023-02-17T00:39:05;12.90;99.90
23544;DHT22;11950;51.230;4.012;2023-02-17T00:41:32;12.90;99.90
23544;DHT22;11950;51.230;4.012;2023-02-17T00:43:58;12.90;99.90
23544;DHT22;11950;51.230;4.012;2023-02-17T00:46:25;12.90;99.90
23544;DHT22;11950;51.230;4.012;2023-02-17T00:48:52;12.90;99.90
23544;DHT22;11950;51.230;4.012;2023-02-17T00:51:18;12.80;99.90
23544;DHT22;11950;51.230;4.012;2023-02-17T00:53:45;12.80;99.90
23544;DHT22;11950;51.230;4.012;2023-02-17T00:56:11;12.90;99.90
23544;DHT22;11950;51.230;4.012;2023-02-17T00:58:38;12.80;99.90
23544;DHT22;11950;51.230;4.012;2023-02-17T01:01:06;12.80;99.90
23544;DHT22;11950;51.230;4.012;2023-02-17T01:03:33;12.80;99.90
23544;DHT22;11950;51.230;4.012;2023-02-17T01:06:05;12.80;99.90
23544;DHT22;11950;51.230;4.012;2023-02-17T01:08:33;12.80;99.90
23544;DHT22;11950;51.230;4.012;2023-02-17T01:10:59;12.80;99.90
23544;DHT22;11950;51.230;4.012;2023-02-17T01:13:26;12.80;99.90
23544;DHT22;11950;51.230;4.012;2023-02-17T01:15:54;12.80;99.90
23544;DHT22;11950;51.230;4.012;2023-02-17T01:18:22;12.70;99.90
23544;DHT22;11950;51.230;4.012;2023-02-17T01:20:50;12.80;99.90
23544;DHT22;11950;51.230;4.012;2023-02-17T01:23:18;12.70;99.90
23544;DHT22;11950;51.230;4.012;2023-02-17T01:25:45;12.70;99.90
23544;DHT22;11950;51.230;4.012;2023-02-17T01:28:18;12.70;99.90
23544;DHT22;11950;51.230;4.012;2023-02-17T01:30:46;12.70;99.90
23544;DHT22;11950;51.230;4.012;2023-02-17T01:33:13;12.70;99.90
23544;DHT22;11950;51.230;4.012;2023-02-17T01:35:39;12.70;99.90
23544;DHT22;11950;51.230;4.012;2023-02-17T01:38:06;12.70;99.90
23544;DHT22;11950;51.230;4.012;2023-02-17T01:40:32;12.80;99.90
23544;DHT22;11950;51.230;4.012;2023-02-17T01:42:59;12.70;99.90
23544;DHT22;11950;51.230;4.012;2023-02-17T01:45:49;12.70;99.90
23544;DHT22;11950;51.230;4.012;2023-02-17T01:50:52;12.70;99.90
23544;DHT22;11950;51.230;4.012;2023-02-17T01:53:26;12.70;99.90
23544;DHT22;11950;51.230;4.012;2023-02-17T01:55:54;12.70;99.90
23544;DHT22;11950;51.230;4.012;2023-02-17T01:58:23;12.70;99.90
23544;DHT22;11950;51.230;4.012;2023-02-17T02:00:52;12.70;99.90
23544;DHT22;11950;51.230;4.012;2023-02-17T02:03:20;12.70;99.90
23544;DHT22;11950;51.230;4.012;2023-02-17T02:05:47;12.70;99.90
23544;DHT22;11950;51.230;4.012;2023-02-17T02:08:14;12.70;99.90
23544;DHT22;11950;51.230;4.012;2023-02-17T02:10:40;12.70;99.90
23544;DHT22;11950;51.230;4.012;2023-02-17T02:13:07;12.60;99.90
23544;DHT22;11950;51.230;4.012;2023-02-17T02:15:39;12.60;99.90
23544;DHT22;11950;51.230;4.012;2023-02-17T02:35:14;12.50;99.90
23544;DHT22;11950;51.230;4.012;2023-02-17T02:40:30;12.50;99.90
23544;DHT22;11950;51.230;4.012;2023-02-17T02:42:57;12.50;99.90
23544;DHT22;11950;51.230;4.012;2023-02-17T02:45:25;12.50;99.90
23544;DHT22;11950;51.230;4.012;2023-02-17T02:47:54;12.50;99.90
23544;DHT22;11950;51.230;4.012;2023-02-17T02:53:22;12.50;99.90
23544;DHT22;11950;51.230;4.012;2023-02-17T02:56:16;12.50;99.90
23544;DHT22;11950;51.230;4.012;2023-02-17T03:01:49;12.50;99.90
23544;DHT22;11950;51.230;4.012;2023-02-17T03:04:28;12.40;99.90
23544;DHT22;11950;51.230;4.012;2023-02-17T03:07:33;12.40;99.90
23544;DHT22;11950;51.230;4.012;2023-02-17T03:10:00;12.40;99.90
23544;DHT22;11950;51.230;4.012;2023-02-17T03:12:27;12.40;99.90
23544;DHT22;11950;51.230;4.012;2023-02-17T03:14:59;12.40;99.90
23544;DHT22;11950;51.230;4.012;2023-02-17T03:17:30;12.40;99.90
23544;DHT22;11950;51.230;4.012;2023-02-17T03:19:57;12.40;99.90
23544;DHT22;11950;51.230;4.012;2023-02-17T03:22:32;12.40;99.90
23544;DHT22;11950;51.230;4.012;2023-02-17T03:25:00;12.40;99.90
23544;DHT22;11950;51.230;4.012;2023-02-17T03:27:27;12.40;99.90
23544;DHT22;11950;51.230;4.012;2023-02-17T03:29:53;12.40;99.90
23544;DHT22;11950;51.230;4.012;2023-02-17T03:32:20;12.40;99.90
23544;DHT22;11950;51.230;4.012;2023-02-17T03:34:46;12.30;99.90
23544;DHT22;11950;51.230;4.012;2023-02-17T03:37:12;12.40;99.90
23544;DHT22;11950;51.230;4.012;2023-02-17T03:39:39;12.40;99.90
23544;DHT22;11950;51.230;4.012;2023-02-17T03:42:05;12.30;99.90
23544;DHT22;11950;51.230;4.012;2023-02-17T03:44:32;12.30;99.90
23544;DHT22;11950;51.230;4.012;2023-02-17T03:46:58;12.40;99.90
23544;DHT22;11950;51.230;4.012;2023-02-17T03:49:24;12.30;99.90
23544;DHT22;11950;51.230;4.012;2023-02-17T03:51:50;12.30;99.90
23544;DHT22;11950;51.230;4.012;2023-02-17T03:54:17;12.40;99.90
23544;DHT22;11950;51.230;4.012;2023-02-17T03:56:43;12.40;99.90
23544;DHT22;11950;51.230;4.012;2023-02-17T03:59:09;12.40;99.90
23544;DHT22;11950;51.230;4.012;2023-02-17T04:01:35;12.30;99.90
23544;DHT22;11950;51.230;4.012;2023-02-17T04:04:02;12.30;99.90
23544;DHT22;11950;51.230;4.012;2023-02-17T04:06:28;12.30;99.90
23544;DHT22;11950;51.230;4.012;2023-02-17T04:08:54;12.30;99.90
23544;DHT22;11950;51.230;4.012;2023-02-17T04:11:21;12.30;99.90
23544;DHT22;11950;51.230;4.012;2023-02-17T04:13:47;12.40;99.90
23544;DHT22;11950;51.230;4.012;2023-02-17T04:16:13;12.30;99.90
23544;DHT22;11950;51.230;4.012;2023-02-17T04:18:39;12.40;99.90
23544;DHT22;11950;51.230;4.012;2023-02-17T04:21:06;12.40;99.90
23544;DHT22;11950;51.230;4.012;2023-02-17T04:23:37;12.40;99.90
23544;DHT22;11950;51.230;4.012;2023-02-17T04:26:05;12.40;99.90
23544;DHT22;11950;51.230;4.012;2023-02-17T04:28:31;12.40;99.90
23544;DHT22;11950;51.230;4.012;2023-02-17T04:30:58;12.30;99.90
23544;DHT22;11950;51.230;4.012;2023-02-17T04:33:25;12.40;99.90
23544;DHT22;11950;51.230;4.012;2023-02-17T04:35:51;12.40;99.90
23544;DHT22;11950;51.230;4.012;2023-02-17T04:38:28;12.30;99.90
23544;DHT22;11950;51.230;4.012;2023-02-17T04:40:56;12.40;99.90
23544;DHT22;11950;51.230;4.012;2023-02-17T04:43:23;12.40;99.90
23544;DHT22;11950;51.230;4.012;2023-02-17T04:45:50;12.40;99.90
23544;DHT22;11950;51.230;4.012;2023-02-17T04:48:17;12.40;99.90
23544;DHT22;11950;51.230;4.012;2023-02-17T04:50:44;12.40;99.90
23544;DHT22;11950;51.230;4.012;2023-02-17T04:53:11;12.40;99.90
23544;DHT22;11950;51.230;4.012;2023-02-17T04:55:40;12.30;99.90
23544;DHT22;11950;51.230;4.012;2023-02-17T04:58:06;12.40;99.90
23544;DHT22;11950;51.230;4.012;2023-02-17T05:00:33;12.40;99.90
23544;DHT22;11950;51.230;4.012;2023-02-17T05:03:00;12.40;99.90
23544;DHT22;11950;51.230;4.012;2023-02-17T05:05:26;12.40;99.90
23544;DHT22;11950;51.230;4.012;2023-02-17T05:07:52;12.40;99.90
23544;DHT22;11950;51.230;4.012;2023-02-17T05:10:19;12.40;99.90
23544;DHT22;11950;51.230;4.012;2023-02-17T05:12:45;12.40;99.90
23544;DHT22;11950;51.230;4.012;2023-02-17T05:15:12;12.40;99.90
23544;DHT22;11950;51.230;4.012;2023-02-17T05:17:38;12.40;99.90
23544;DHT22;11950;51.230;4.012;2023-02-17T05:20:05;12.40;99.90
23544;DHT22;11950;51.230;4.012;2023-02-17T05:22:32;12.40;99.90
23544;DHT22;11950;51.230;4.012;2023-02-17T05:24:58;12.40;99.90
23544;DHT22;11950;51.230;4.012;2023-02-17T05:27:24;12.40;99.90
23544;DHT22;11950;51.230;4.012;2023-02-17T05:29:51;12.40;99.90
23544;DHT22;11950;51.230;4.012;2023-02-17T05:32:17;12.40;99.90
23544;DHT22;11950;51.230;4.012;2023-02-17T05:34:44;12.40;99.90
23544;DHT22;11950;51.230;4.012;2023-02-17T05:37:10;12.40;99.90
23544;DHT22;11950;51.230;4.012;2023-02-17T05:39:36;12.50;99.90
23544;DHT22;11950;51.230;4.012;2023-02-17T05:42:03;12.50;99.90
23544;DHT22;11950;51.230;4.012;2023-02-17T05:44:29;12.40;99.90
23544;DHT22;11950;51.230;4.012;2023-02-17T05:46:55;12.40;99.90
23544;DHT22;11950;51.230;4.012;2023-02-17T05:49:22;12.40;99.90
23544;DHT22;11950;51.230;4.012;2023-02-17T05:51:48;12.40;99.90
23544;DHT22;11950;51.230;4.012;2023-02-17T05:54:14;12.40;99.90
23544;DHT22;11950;51.230;4.012;2023-02-17T05:56:41;12.40;99.90
23544;DHT22;11950;51.230;4.012;2023-02-17T05:59:07;12.40;99.90
23544;DHT22;11950;51.230;4.012;2023-02-17T06:01:33;12.40;99.90
23544;DHT22;11950;51.230;4.012;2023-02-17T06:03:59;12.40;99.90
23544;DHT22;11950;51.230;4.012;2023-02-17T06:06:26;12.50;99.90
23544;DHT22;11950;51.230;4.012;2023-02-17T06:08:52;12.40;99.90
23544;DHT22;11950;51.230;4.012;2023-02-17T06:11:18;12.50;99.90
23544;DHT22;11950;51.230;4.012;2023-02-17T06:13:45;12.50;99.90
23544;DHT22;11950;51.230;4.012;2023-02-17T06:16:11;12.50;99.90
23544;DHT22;11950;51.230;4.012;2023-02-17T06:18:37;12.50;99.90
23544;DHT22;11950;51.230;4.012;2023-02-17T06:21:04;12.50;99.90
23544;DHT22;11950;51.230;4.012;2023-02-17T06:23:30;12.50;99.90
23544;DHT22;11950;51.230;4.012;2023-02-17T06:25:56;12.50;99.90
23544;DHT22;11950;51.230;4.012;2023-02-17T06:28:23;12.50;99.90
23544;DHT22;11950;51.230;4.012;2023-02-17T06:30:49;12.50;99.90
23544;DHT22;11950;51.230;4.012;2023-02-17T06:33:15;12.50;99.90
23544;DHT22;11950;51.230;4.012;2023-02-17T06:35:42;12.50;99.90
23544;DHT22;11950;51.230;4.012;2023-02-17T06:38:12;12.60;99.90
23544;DHT22;11950;51.230;4.012;2023-02-17T06:40:38;12.60;99.90
23544;DHT22;11950;51.230;4.012;2023-02-17T06:43:05;12.60;99.90
23544;DHT22;11950;51.230;4.012;2023-02-17T06:45:32;12.60;99.90
23544;DHT22;11950;51.230;4.012;2023-02-17T06:47:58;12.50;99.90
23544;DHT22;11950;51.230;4.012;2023-02-17T06:50:24;12.60;99.90
23544;DHT22;11950;51.230;4.012;2023-02-17T06:52:50;12.60;99.90
23544;DHT22;11950;51.230;4.012;2023-02-17T06:55:17;12.60;99.90
23544;DHT22;11950;51.230;4.012;2023-02-17T06:57:43;12.60;99.90
23544;DHT22;11950;51.230;4.012;2023-02-17T07:00:10;12.60;99.90
23544;DHT22;11950;51.230;4.012;2023-02-17T07:02:37;12.60;99.90
23544;DHT22;11950;51.230;4.012;2023-02-17T07:05:05;12.60;99.90
23544;DHT22;11950;51.230;4.012;2023-02-17T07:07:31;12.70;99.90
23544;DHT22;11950;51.230;4.012;2023-02-17T07:09:58;12.70;99.90
23544;DHT22;11950;51.230;4.012;2023-02-17T07:12:26;12.60;99.90
23544;DHT22;11950;51.230;4.012;2023-02-17T07:14:53;12.60;99.90
23544;DHT22;11950;51.230;4.012;2023-02-17T07:17:20;12.70;99.90
23544;DHT22;11950;51.230;4.012;2023-02-17T07:19:46;12.70;99.90
23544;DHT22;11950;51.230;4.012;2023-02-17T07:22:12;12.70;99.90
23544;DHT22;11950;51.230;4.012;2023-02-17T07:24:39;12.70;99.90
23544;DHT22;11950;51.230;4.012;2023-02-17T07:27:05;12.60;99.90
23544;DHT22;11950;51.230;4.012;2023-02-17T07:29:31;12.60;99.90
23544;DHT22;11950;51.230;4.012;2023-02-17T07:31:58;12.70;99.90
23544;DHT22;11950;51.230;4.012;2023-02-17T07:34:24;12.70;99.90
23544;DHT22;11950;51.230;4.012;2023-02-17T07:36:50;12.70;99.90
23544;DHT22;11950;51.230;4.012;2023-02-17T07:39:17;12.70;99.90
23544;DHT22;11950;51.230;4.012;2023-02-17T07:41:43;12.70;99.90
23544;DHT22;11950;51.230;4.012;2023-02-17T07:44:09;12.70;99.90
23544;DHT22;11950;51.230;4.012;2023-02-17T07:46:36;12.70;99.90
23544;DHT22;11950;51.230;4.012;2023-02-17T07:49:05;12.80;99.90
23544;DHT22;11950;51.230;4.012;2023-02-17T07:51:31;12.80;99.90
23544;DHT22;11950;51.230;4.012;2023-02-17T07:53:57;12.80;99.90
23544;DHT22;11950;51.230;4.012;2023-02-17T07:56:24;12.90;99.90
23544;DHT22;11950;51.230;4.012;2023-02-17T07:58:50;12.90;99.90
23544;DHT22;11950;51.230;4.012;2023-02-17T08:01:19;12.90;99.90
23544;DHT22;11950;51.230;4.012;2023-02-17T08:03:47;12.90;99.90
23544;DHT22;11950;51.230;4.012;2023-02-17T08:06:16;12.90;99.90
23544;DHT22;11950;51.230;4.012;2023-02-17T08:08:43;12.90;99.90
23544;DHT22;11950;51.230;4.012;2023-02-17T08:11:29;12.90;99.90
23544;DHT22;11950;51.230;4.012;2023-02-17T08:14:14;13.00;99.90
23544;DHT22;11950;51.230;4.012;2023-02-17T08:16:41;13.00;99.90
23544;DHT22;11950;51.230;4.012;2023-02-17T08:19:07;13.00;99.90
23544;DHT22;11950;51.230;4.012;2023-02-17T08:21:34;13.00;99.90
23544;DHT22;11950;51.230;4.012;2023-02-17T08:24:00;13.00;99.90
23544;DHT22;11950;51.230;4.012;2023-02-17T08:26:27;13.00;99.90
23544;DHT22;11950;51.230;4.012;2023-02-17T08:28:54;13.00;99.90
23544;DHT22;11950;51.230;4.012;2023-02-17T08:31:24;13.00;99.90
23544;DHT22;11950;51.230;4.012;2023-02-17T08:33:51;12.90;99.90
23544;DHT22;11950;51.230;4.012;2023-02-17T08:36:18;12.90;99.90
23544;DHT22;11950;51.230;4.012;2023-02-17T08:38:50;12.90;99.90
23544;DHT22;11950;51.230;4.012;2023-02-17T08:41:23;13.00;99.90
23544;DHT22;11950;51.230;4.012;2023-02-17T08:43:50;13.00;99.90
23544;DHT22;11950;51.230;4.012;2023-02-17T08:46:17;13.00;99.90
23544;DHT22;11950;51.230;4.012;2023-02-17T08:48:44;13.10;99.90
23544;DHT22;11950;51.230;4.012;2023-02-17T08:51:17;13.10;99.90
23544;DHT22;11950;51.230;4.012;2023-02-17T08:53:44;13.20;99.90
23544;DHT22;11950;51.230;4.012;2023-02-17T08:56:11;13.20;99.90
23544;DHT22;11950;51.230;4.012;2023-02-17T08:58:37;13.30;99.90
23544;DHT22;11950;51.230;4.012;2023-02-17T09:01:04;13.30;99.90
23544;DHT22;11950;51.230;4.012;2023-02-17T09:03:33;13.30;99.90
23544;DHT22;11950;51.230;4.012;2023-02-17T09:06:00;13.40;99.90
23544;DHT22;11950;51.230;4.012;2023-02-17T09:08:26;13.40;99.90
23544;DHT22;11950;51.230;4.012;2023-02-17T09:10:53;13.40;99.90
23544;DHT22;11950;51.230;4.012;2023-02-17T09:13:19;13.40;99.90
23544;DHT22;11950;51.230;4.012;2023-02-17T09:15:45;13.40;99.90
23544;DHT22;11950;51.230;4.012;2023-02-17T09:18:12;13.40;99.90
23544;DHT22;11950;51.230;4.012;2023-02-17T09:20:38;13.30;99.90
23544;DHT22;11950;51.230;4.012;2023-02-17T09:23:05;13.30;99.90
23544;DHT22;11950;51.230;4.012;2023-02-17T09:25:31;13.40;99.90
23544;DHT22;11950;51.230;4.012;2023-02-17T09:27:58;13.40;99.90
23544;DHT22;11950;51.230;4.012;2023-02-17T09:30:25;13.40;99.90
23544;DHT22;11950;51.230;4.012;2023-02-17T09:32:51;13.40;99.90
23544;DHT22;11950;51.230;4.012;2023-02-17T09:35:17;13.50;99.90
23544;DHT22;11950;51.230;4.012;2023-02-17T09:37:44;13.50;99.90
23544;DHT22;11950;51.230;4.012;2023-02-17T09:40:44;13.50;99.90
23544;DHT22;11950;51.230;4.012;2023-02-17T09:43:13;13.50;99.90
23544;DHT22;11950;51.230;4.012;2023-02-17T09:45:43;13.50;99.90
23544;DHT22;11950;51.230;4.012;2023-02-17T09:48:14;13.50;99.90
23544;DHT22;11950;51.230;4.012;2023-02-17T09:51:05;13.50;99.90
23544;DHT22;11950;51.230;4.012;2023-02-17T09:53:40;13.50;99.90
23544;DHT22;11950;51.230;4.012;2023-02-17T09:56:13;13.60;99.90
23544;DHT22;11950;51.230;4.012;2023-02-17T09:58:45;13.60;99.90
23544;DHT22;11950;51.230;4.012;2023-02-17T10:01:19;13.70;99.90
23544;DHT22;11950;51.230;4.012;2023-02-17T10:04:32;13.80;99.90
23544;DHT22;11950;51.230;4.012;2023-02-17T10:06:42;13.80;99.90
23544;DHT22;11950;51.230;4.012;2023-02-17T10:14:29;14.60;99.90
23544;DHT22;11950;51.230;4.012;2023-02-17T10:22:29;14.00;99.90
23544;DHT22;11950;51.230;4.012;2023-02-17T10:24:57;14.00;99.90
23544;DHT22;11950;51.230;4.012;2023-02-17T10:28:04;14.10;99.90
23544;DHT22;11950;51.230;4.012;2023-02-17T10:30:34;14.00;99.90
23544;DHT22;11950;51.230;4.012;2023-02-17T10:33:13;14.10;99.90
23544;DHT22;11950;51.230;4.012;2023-02-17T10:40:59;14.10;99.90
23544;DHT22;11950;51.230;4.012;2023-02-17T10:43:28;14.10;99.90
23544;DHT22;11950;51.230;4.012;2023-02-17T10:45:59;14.10;99.90
23544;DHT22;11950;51.230;4.012;2023-02-17T10:48:34;14.10;99.90
23544;DHT22;11950;51.230;4.012;2023-02-17T10:51:03;14.10;99.90
23544;DHT22;11950;51.230;4.012;2023-02-17T10:53:39;14.20;99.90
23544;DHT22;11950;51.230;4.012;2023-02-17T10:59:05;14.20;99.90
23544;DHT22;11950;51.230;4.012;2023-02-17T11:01:33;14.20;99.90
23544;DHT22;11950;51.230;4.012;2023-02-17T11:04:04;14.30;99.90
23544;DHT22;11950;51.230;4.012;2023-02-17T11:06:36;14.30;99.90
23544;DHT22;11950;51.230;4.012;2023-02-17T11:09:06;14.30;99.90
23544;DHT22;11950;51.230;4.012;2023-02-17T11:12:32;14.30;99.90
23544;DHT22;11950;51.230;4.012;2023-02-17T11:14:44;14.40;99.90
23544;DHT22;11950;51.230;4.012;2023-02-17T11:17:22;14.40;99.90
23544;DHT22;11950;51.230;4.012;2023-02-17T11:19:59;14.40;99.90
23544;DHT22;11950;51.230;4.012;2023-02-17T11:22:35;14.40;99.90
23544;DHT22;11950;51.230;4.012;2023-02-17T11:25:06;14.20;99.90
23544;DHT22;11950;51.230;4.012;2023-02-17T11:27:32;14.40;99.90
23544;DHT22;11950;51.230;4.012;2023-02-17T11:30:14;14.40;99.90
23544;DHT22;11950;51.230;4.012;2023-02-17T11:32:41;14.40;99.90
23544;DHT22;11950;51.230;4.012;2023-02-17T11:37:58;14.40;99.90
23544;DHT22;11950;51.230;4.012;2023-02-17T11:40:29;14.30;99.90
23544;DHT22;11950;51.230;4.012;2023-02-17T11:42:57;14.30;99.90
23544;DHT22;11950;51.230;4.012;2023-02-17T11:45:26;14.30;99.90
23544;DHT22;11950;51.230;4.012;2023-02-17T11:48:13;14.30;99.90
23544;DHT22;11950;51.230;4.012;2023-02-17T11:51:01;14.30;99.90
23544;DHT22;11950;51.230;4.012;2023-02-17T11:56:18;14.30;99.90
23544;DHT22;11950;51.230;4.012;2023-02-17T12:01:37;14.30;99.90
23544;DHT22;11950;51.230;4.012;2023-02-17T12:04:24;14.30;99.90
23544;DHT22;11950;51.230;4.012;2023-02-17T12:07:23;14.30;99.90
23544;DHT22;11950;51.230;4.012;2023-02-17T12:10:13;14.30;99.90
23544;DHT22;11950;51.230;4.012;2023-02-17T12:26:58;14.30;99.90
23544;DHT22;11950;51.230;4.012;2023-02-17T12:35:23;14.50;99.90
23544;DHT22;11950;51.230;4.012;2023-02-17T12:37:58;14.50;99.90
23544;DHT22;11950;51.230;4.012;2023-02-17T12:40:39;14.60;99.90
23544;DHT22;11950;51.230;4.012;2023-02-17T12:45:44;14.50;99.90
23544;DHT22;11950;51.230;4.012;2023-02-17T12:48:38;14.50;99.90
23544;DHT22;11950;51.230;4.012;2023-02-17T12:51:30;14.50;99.90
23544;DHT22;11950;51.230;4.012;2023-02-17T12:57:28;14.60;99.90
23544;DHT22;11950;51.230;4.012;2023-02-17T13:02:16;14.70;99.90
23544;DHT22;11950;51.230;4.012;2023-02-17T13:04:52;14.60;99.90
23544;DHT22;11950;51.230;4.012;2023-02-17T13:10:29;14.70;99.90
23544;DHT22;11950;51.230;4.012;2023-02-17T13:13:24;14.60;99.90
23544;DHT22;11950;51.230;4.012;2023-02-17T13:16:10;14.60;99.90
23544;DHT22;11950;51.230;4.012;2023-02-17T13:18:42;14.60;99.90
23544;DHT22;11950;51.230;4.012;2023-02-17T13:24:12;14.60;99.90
23544;DHT22;11950;51.230;4.012;2023-02-17T13:26:43;14.60;99.90
23544;DHT22;11950;51.230;4.012;2023-02-17T13:29:20;14.60;99.90
23544;DHT22;11950;51.230;4.012;2023-02-17T13:31:54;14.60;99.90
23544;DHT22;11950;51.230;4.012;2023-02-17T13:34:40;14.70;99.90
23544;DHT22;11950;51.230;4.012;2023-02-17T13:37:24;14.70;99.90
23544;DHT22;11950;51.230;4.012;2023-02-17T13:43:17;14.80;99.90
23544;DHT22;11950;51.230;4.012;2023-02-17T13:48:33;14.80;99.90
23544;DHT22;11950;51.230;4.012;2023-02-17T13:51:05;14.90;99.90
23544;DHT22;11950;51.230;4.012;2023-02-17T13:53:37;14.90;99.90
23544;DHT22;11950;51.230;4.012;2023-02-17T13:56:09;14.90;99.90
23544;DHT22;11950;51.230;4.012;2023-02-17T13:58:38;14.90;99.90
23544;DHT22;11950;51.230;4.012;2023-02-17T14:01:07;14.90;99.90
23544;DHT22;11950;51.230;4.012;2023-02-17T14:03:40;14.80;99.90
23544;DHT22;11950;51.230;4.012;2023-02-17T14:06:20;14.80;99.90
23544;DHT22;11950;51.230;4.012;2023-02-17T14:08:47;14.80;99.90
23544;DHT22;11950;51.230;4.012;2023-02-17T14:11:15;14.70;99.90
23544;DHT22;11950;51.230;4.012;2023-02-17T14:13:46;14.70;99.90
23544;DHT22;11950;51.230;4.012;2023-02-17T14:16:32;14.70;99.90
23544;DHT22;11950;51.230;4.012;2023-02-17T14:21:38;14.70;99.90
23544;DHT22;11950;51.230;4.012;2023-02-17T14:24:04;14.60;99.90
23544;DHT22;11950;51.230;4.012;2023-02-17T14:26:47;14.60;99.90
23544;DHT22;11950;51.230;4.012;2023-02-17T14:29:14;14.70;99.90
23544;DHT22;11950;51.230;4.012;2023-02-17T14:31:46;14.60;99.90
23544;DHT22;11950;51.230;4.012;2023-02-17T14:34:34;14.60;99.90
23544;DHT22;11950;51.230;4.012;2023-02-17T14:37:17;14.60;99.90
23544;DHT22;11950;51.230;4.012;2023-02-17T14:39:46;14.60;99.90
23544;DHT22;11950;51.230;4.012;2023-02-17T14:42:12;14.60;99.90
23544;DHT22;11950;51.230;4.012;2023-02-17T14:44:38;14.60;99.90
23544;DHT22;11950;51.230;4.012;2023-02-17T14:47:05;14.60;99.90
23544;DHT22;11950;51.230;4.012;2023-02-17T14:49:32;14.70;99.90
23544;DHT22;11950;51.230;4.012;2023-02-17T14:51:58;14.60;99.90
23544;DHT22;11950;51.230;4.012;2023-02-17T14:54:27;14.60;99.90
23544;DHT22;11950;51.230;4.012;2023-02-17T14:59:24;14.60;99.90
23544;DHT22;11950;51.230;4.012;2023-02-17T15:01:50;14.60;99.90
23544;DHT22;11950;51.230;4.012;2023-02-17T15:04:16;14.50;99.90
23544;DHT22;11950;51.230;4.012;2023-02-17T15:06:45;14.50;99.90
23544;DHT22;11950;51.230;4.012;2023-02-17T15:09:15;14.50;99.90
23544;DHT22;11950;51.230;4.012;2023-02-17T15:11:43;14.50;99.90
23544;DHT22;11950;51.230;4.012;2023-02-17T15:14:16;14.50;99.90
23544;DHT22;11950;51.230;4.012;2023-02-17T15:16:44;14.60;99.90
23544;DHT22;11950;51.230;4.012;2023-02-17T15:19:11;14.60;99.90
23544;DHT22;11950;51.230;4.012;2023-02-17T15:21:46;14.60;99.90
23544;DHT22;11950;51.230;4.012;2023-02-17T15:24:22;14.50;99.90
23544;DHT22;11950;51.230;4.012;2023-02-17T15:26:49;14.50;99.90
23544;DHT22;11950;51.230;4.012;2023-02-17T15:29:18;14.50;99.90
23544;DHT22;11950;51.230;4.012;2023-02-17T15:31:46;14.50;99.90
23544;DHT22;11950;51.230;4.012;2023-02-17T15:34:15;14.50;99.90
23544;DHT22;11950;51.230;4.012;2023-02-17T15:36:42;14.50;99.90
23544;DHT22;11950;51.230;4.012;2023-02-17T15:39:11;14.50;99.90
23544;DHT22;11950;51.230;4.012;2023-02-17T15:41:38;14.50;99.90
23544;DHT22;11950;51.230;4.012;2023-02-17T15:44:10;14.50;99.90
23544;DHT22;11950;51.230;4.012;2023-02-17T15:46:37;14.40;99.90
23544;DHT22;11950;51.230;4.012;2023-02-17T15:49:04;14.50;99.90
23544;DHT22;11950;51.230;4.012;2023-02-17T15:51:30;14.50;99.90
23544;DHT22;11950;51.230;4.012;2023-02-17T15:53:57;14.50;99.90
23544;DHT22;11950;51.230;4.012;2023-02-17T15:56:29;14.50;99.90
23544;DHT22;11950;51.230;4.012;2023-02-17T15:58:57;14.50;99.90
23544;DHT22;11950;51.230;4.012;2023-02-17T16:01:32;14.40;99.90
23544;DHT22;11950;51.230;4.012;2023-02-17T16:03:59;14.50;99.90
23544;DHT22;11950;51.230;4.012;2023-02-17T16:06:26;14.50;99.90
23544;DHT22;11950;51.230;4.012;2023-02-17T16:08:54;14.50;99.90
23544;DHT22;11950;51.230;4.012;2023-02-17T16:11:23;14.50;99.90
23544;DHT22;11950;51.230;4.012;2023-02-17T16:13:50;14.50;99.90
23544;DHT22;11950;51.230;4.012;2023-02-17T16:16:25;14.40;99.90
23544;DHT22;11950;51.230;4.012;2023-02-17T16:18:58;14.40;99.90
23544;DHT22;11950;51.230;4.012;2023-02-17T16:21:25;14.40;99.90
23544;DHT22;11950;51.230;4.012;2023-02-17T16:23:51;14.40;99.90
23544;DHT22;11950;51.230;4.012;2023-02-17T16:28:53;14.50;99.90
23544;DHT22;11950;51.230;4.012;2023-02-17T16:31:20;14.50;99.90
23544;DHT22;11950;51.230;4.012;2023-02-17T16:33:46;14.50;99.90
23544;DHT22;11950;51.230;4.012;2023-02-17T16:36:14;14.40;99.90
23544;DHT22;11950;51.230;4.012;2023-02-17T16:38:41;14.40;99.90
23544;DHT22;11950;51.230;4.012;2023-02-17T16:41:13;14.40;99.90
23544;DHT22;11950;51.230;4.012;2023-02-17T16:43:39;14.40;99.90
23544;DHT22;11950;51.230;4.012;2023-02-17T16:46:06;14.40;99.90
23544;DHT22;11950;51.230;4.012;2023-02-17T16:48:34;14.40;99.90
23544;DHT22;11950;51.230;4.012;2023-02-17T16:51:01;14.40;99.90
23544;DHT22;11950;51.230;4.012;2023-02-17T16:53:27;14.30;99.90
23544;DHT22;11950;51.230;4.012;2023-02-17T16:55:54;14.30;99.90
23544;DHT22;11950;51.230;4.012;2023-02-17T16:58:23;14.20;99.90
23544;DHT22;11950;51.230;4.012;2023-02-17T17:00:54;14.20;99.90
23544;DHT22;11950;51.230;4.012;2023-02-17T17:03:21;14.20;99.90
23544;DHT22;11950;51.230;4.012;2023-02-17T17:05:49;14.20;99.90
23544;DHT22;11950;51.230;4.012;2023-02-17T17:08:16;14.10;99.90
23544;DHT22;11950;51.230;4.012;2023-02-17T17:10:44;14.10;99.90
23544;DHT22;11950;51.230;4.012;2023-02-17T17:13:11;14.10;99.90
23544;DHT22;11950;51.230;4.012;2023-02-17T17:15:41;14.10;99.90
23544;DHT22;11950;51.230;4.012;2023-02-17T17:18:13;14.10;99.90
23544;DHT22;11950;51.230;4.012;2023-02-17T17:20:41;14.00;99.90
23544;DHT22;11950;51.230;4.012;2023-02-17T17:23:11;14.00;99.90
23544;DHT22;11950;51.230;4.012;2023-02-17T17:25:39;14.00;99.90
23544;DHT22;11950;51.230;4.012;2023-02-17T17:28:07;14.00;99.90
23544;DHT22;11950;51.230;4.012;2023-02-17T17:30:37;13.90;99.90